This is the latest recevied weather packets stored in our database for station/object KB0RPJ. If no packets are shown the sender has not sent any weather packets the latest 10 day(s).
| Time | Temp. | Humidity | Pressure | Rain* | Wind** | Luminosity | Snow |
|---|---|---|---|---|---|---|---|
| 1777569020 | 17.22° C | 54% | 1016.1 hPa | 0 mm | - | 942 W/m² | - |
| 1777568406 | 17.22° C | 52% | 1016.3 hPa | 0 mm | - | 833 W/m² | - |
| 1777567809 | 16.67° C | 53% | 1016.6 hPa | 0 mm | - | 594 W/m² | - |
| 1777567206 | 16.67° C | 52% | 1016.7 hPa | 0 mm | - | 895 W/m² | - |
| 1777566605 | 16.11° C | 56% | 1016.6 hPa | 0 mm | - | 831 W/m² | - |
| 1777565705 | 15.56° C | 56% | 1016.9 hPa | 0 mm | - | 780 W/m² | - |
| 1777563317 | 14.44° C | 66% | 1017 hPa | 0 mm | - | 684 W/m² | - |
| 1777561506 | 12.78° C | 75% | 1017.2 hPa | 0 mm | - | 363 W/m² | - |
| 1777560908 | 11.67° C | 75% | 1017.3 hPa | 0 mm | - | 302 W/m² | - |
| 1777560305 | 11.11° C | 77% | 1017.4 hPa | 0 mm | - | 263 W/m² | - |
| 1777559405 | 10.56° C | 80% | 1017.6 hPa | 0 mm | - | 230 W/m² | - |
| 1777558205 | 10° C | 80% | 1017.6 hPa | 0 mm | - | 243 W/m² | - |
| 1777557905 | 10° C | 84% | 1017.6 hPa | 0 mm | - | 231 W/m² | - |
| 1777557305 | 9.44° C | 83% | 1017.8 hPa | 0 mm | - | 172 W/m² | - |
| 1777555805 | 9.44° C | 79% | 1017.9 hPa | 0 mm | - | 106 W/m² | - |
| 1777554908 | 8.89° C | 79% | 1018.2 hPa | 0 mm | - | 112 W/m² | - |
| 1777554605 | 8.89° C | 79% | 1018.2 hPa | 0 mm | - | 65 W/m² | - |
| 1777554306 | 8.89° C | 80% | 1018.2 hPa | 0 mm | - | 73 W/m² | - |
| 1777553408 | 8.33° C | 79% | 1018.2 hPa | 0 mm | - | 26 W/m² | - |
| 1777552505 | 7.78° C | 80% | 1018.2 hPa | 0 mm | - | 58 W/m² | - |
| 1777552205 | 7.78° C | 80% | 1018.1 hPa | 0 mm | - | 41 W/m² | - |
| 1777551905 | 7.78° C | 80% | 1018 hPa | 0 mm | - | 24 W/m² | - |
| 1777549805 | 7.22° C | 81% | 1017.9 hPa | 0 mm | - | 14 W/m² | - |
| 1777548006 | 6.67° C | 82% | 1017.8 hPa | 0 mm | - | 2 W/m² | - |
| 1777547406 | 6.11° C | 82% | 1017.8 hPa | 0 mm | - | 0 W/m² | - |
* Rain latest hour (hover to see other rain measurements)
** Current wind speed in m/s (hover to see current wind gust speed)